sensor_id;sensor_type;location;lat;lon;timestamp;P1;durP1;ratioP1;P2;durP2;ratioP2
10711;SDS011;5407;51.234;6.804;2023-10-31T00:01:32;2.57;;;2.47;;
10711;SDS011;5407;51.234;6.804;2023-10-31T00:04:00;3.10;;;2.60;;
10711;SDS011;5407;51.234;6.804;2023-10-31T00:06:27;2.60;;;2.40;;
10711;SDS011;5407;51.234;6.804;2023-10-31T00:08:54;2.60;;;2.40;;
10711;SDS011;5407;51.234;6.804;2023-10-31T00:11:21;2.47;;;2.33;;
10711;SDS011;5407;51.234;6.804;2023-10-31T00:13:48;3.37;;;2.40;;
10711;SDS011;5407;51.234;6.804;2023-10-31T00:16:15;3.60;;;2.50;;
10711;SDS011;5407;51.234;6.804;2023-10-31T00:18:42;2.33;;;2.20;;
10711;SDS011;5407;51.234;6.804;2023-10-31T00:21:10;4.23;;;2.20;;
10711;SDS011;5407;51.234;6.804;2023-10-31T00:23:42;2.50;;;2.30;;
10711;SDS011;5407;51.234;6.804;2023-10-31T00:26:10;2.60;;;2.40;;
10711;SDS011;5407;51.234;6.804;2023-10-31T00:28:38;2.73;;;2.27;;
10711;SDS011;5407;51.234;6.804;2023-10-31T00:31:05;3.70;;;2.57;;
10711;SDS011;5407;51.234;6.804;2023-10-31T00:33:33;2.80;;;2.30;;
10711;SDS011;5407;51.234;6.804;2023-10-31T00:36:00;2.70;;;2.43;;
10711;SDS011;5407;51.234;6.804;2023-10-31T00:38:29;3.57;;;2.20;;
10711;SDS011;5407;51.234;6.804;2023-10-31T00:40:56;3.10;;;2.43;;
10711;SDS011;5407;51.234;6.804;2023-10-31T00:43:23;3.60;;;2.13;;
10711;SDS011;5407;51.234;6.804;2023-10-31T00:45:50;2.83;;;2.30;;
10711;SDS011;5407;51.234;6.804;2023-10-31T00:48:17;2.10;;;1.90;;
10711;SDS011;5407;51.234;6.804;2023-10-31T00:50:45;3.33;;;1.90;;
10711;SDS011;5407;51.234;6.804;2023-10-31T00:53:12;2.03;;;1.83;;
10711;SDS011;5407;51.234;6.804;2023-10-31T00:55:41;2.67;;;1.83;;
10711;SDS011;5407;51.234;6.804;2023-10-31T00:58:08;3.43;;;2.00;;
10711;SDS011;5407;51.234;6.804;2023-10-31T01:00:35;3.23;;;1.80;;
10711;SDS011;5407;51.234;6.804;2023-10-31T01:03:02;1.70;;;1.60;;
10711;SDS011;5407;51.234;6.804;2023-10-31T01:05:29;4.20;;;1.77;;
10711;SDS011;5407;51.234;6.804;2023-10-31T01:07:56;2.43;;;1.70;;
10711;SDS011;5407;51.234;6.804;2023-10-31T01:10:23;2.87;;;1.67;;
10711;SDS011;5407;51.234;6.804;2023-10-31T01:12:52;2.43;;;1.60;;
10711;SDS011;5407;51.234;6.804;2023-10-31T01:15:19;4.60;;;1.80;;
10711;SDS011;5407;51.234;6.804;2023-10-31T01:17:46;2.00;;;1.80;;
10711;SDS011;5407;51.234;6.804;2023-10-31T01:20:13;4.37;;;2.00;;
10711;SDS011;5407;51.234;6.804;2023-10-31T01:22:41;2.83;;;1.90;;
10711;SDS011;5407;51.234;6.804;2023-10-31T01:25:07;3.07;;;2.00;;
10711;SDS011;5407;51.234;6.804;2023-10-31T01:27:35;2.70;;;2.10;;
10711;SDS011;5407;51.234;6.804;2023-10-31T01:30:05;3.10;;;2.10;;
10711;SDS011;5407;51.234;6.804;2023-10-31T01:32:33;5.70;;;2.67;;
10711;SDS011;5407;51.234;6.804;2023-10-31T01:35:00;5.57;;;2.77;;
10711;SDS011;5407;51.234;6.804;2023-10-31T01:37:27;3.07;;;2.23;;
10711;SDS011;5407;51.234;6.804;2023-10-31T01:39:53;4.30;;;2.20;;
10711;SDS011;5407;51.234;6.804;2023-10-31T01:42:20;5.00;;;2.67;;
10711;SDS011;5407;51.234;6.804;2023-10-31T01:44:47;4.20;;;2.27;;
10711;SDS011;5407;51.234;6.804;2023-10-31T01:47:16;4.30;;;2.80;;
10711;SDS011;5407;51.234;6.804;2023-10-31T01:49:43;9.67;;;4.50;;
10711;SDS011;5407;51.234;6.804;2023-10-31T01:52:10;7.00;;;3.50;;
10711;SDS011;5407;51.234;6.804;2023-10-31T01:54:37;6.80;;;3.50;;
10711;SDS011;5407;51.234;6.804;2023-10-31T01:57:06;5.80;;;3.47;;
10711;SDS011;5407;51.234;6.804;2023-10-31T01:59:33;6.83;;;3.20;;
10711;SDS011;5407;51.234;6.804;2023-10-31T02:02:00;5.67;;;3.37;;
10711;SDS011;5407;51.234;6.804;2023-10-31T02:04:31;6.80;;;3.70;;
10711;SDS011;5407;51.234;6.804;2023-10-31T02:06:59;5.67;;;3.83;;
10711;SDS011;5407;51.234;6.804;2023-10-31T02:09:26;4.97;;;3.73;;
10711;SDS011;5407;51.234;6.804;2023-10-31T02:11:56;5.33;;;3.97;;
10711;SDS011;5407;51.234;6.804;2023-10-31T02:14:24;6.43;;;4.23;;
10711;SDS011;5407;51.234;6.804;2023-10-31T02:16:51;6.97;;;4.53;;
10711;SDS011;5407;51.234;6.804;2023-10-31T02:19:18;4.53;;;3.63;;
10711;SDS011;5407;51.234;6.804;2023-10-31T02:21:48;9.63;;;4.30;;
10711;SDS011;5407;51.234;6.804;2023-10-31T02:24:16;6.53;;;4.20;;
10711;SDS011;5407;51.234;6.804;2023-10-31T02:26:43;6.50;;;4.40;;
10711;SDS011;5407;51.234;6.804;2023-10-31T02:29:11;7.73;;;4.57;;
10711;SDS011;5407;51.234;6.804;2023-10-31T02:31:38;8.23;;;5.40;;
10711;SDS011;5407;51.234;6.804;2023-10-31T02:34:05;7.80;;;5.13;;
10711;SDS011;5407;51.234;6.804;2023-10-31T02:36:32;8.93;;;5.60;;
10711;SDS011;5407;51.234;6.804;2023-10-31T02:39:01;7.50;;;5.50;;
10711;SDS011;5407;51.234;6.804;2023-10-31T02:41:28;10.00;;;6.23;;
10711;SDS011;5407;51.234;6.804;2023-10-31T02:43:55;9.00;;;6.33;;
10711;SDS011;5407;51.234;6.804;2023-10-31T02:46:22;10.43;;;6.23;;
10711;SDS011;5407;51.234;6.804;2023-10-31T02:48:49;10.73;;;6.20;;
10711;SDS011;5407;51.234;6.804;2023-10-31T02:51:17;11.70;;;6.90;;
10711;SDS011;5407;51.234;6.804;2023-10-31T02:53:44;8.13;;;6.50;;
10711;SDS011;5407;51.234;6.804;2023-10-31T02:56:12;10.50;;;6.87;;
10711;SDS011;5407;51.234;6.804;2023-10-31T02:58:39;10.03;;;6.40;;
10711;SDS011;5407;51.234;6.804;2023-10-31T03:01:06;11.20;;;6.93;;
10711;SDS011;5407;51.234;6.804;2023-10-31T03:03:33;9.43;;;6.80;;
10711;SDS011;5407;51.234;6.804;2023-10-31T03:06:00;8.90;;;6.77;;
10711;SDS011;5407;51.234;6.804;2023-10-31T03:08:27;9.57;;;7.07;;
10711;SDS011;5407;51.234;6.804;2023-10-31T03:10:54;10.77;;;6.90;;
10711;SDS011;5407;51.234;6.804;2023-10-31T03:13:22;9.27;;;6.57;;
10711;SDS011;5407;51.234;6.804;2023-10-31T03:15:49;10.17;;;6.73;;
10711;SDS011;5407;51.234;6.804;2023-10-31T03:18:16;11.17;;;6.70;;
10711;SDS011;5407;51.234;6.804;2023-10-31T03:20:43;7.57;;;6.20;;
10711;SDS011;5407;51.234;6.804;2023-10-31T03:23:12;8.23;;;6.40;;
10711;SDS011;5407;51.234;6.804;2023-10-31T03:25:39;7.77;;;5.90;;
10711;SDS011;5407;51.234;6.804;2023-10-31T03:28:07;8.77;;;5.90;;
10711;SDS011;5407;51.234;6.804;2023-10-31T03:30:46;7.03;;;5.87;;
10711;SDS011;5407;51.234;6.804;2023-10-31T03:33:13;7.40;;;5.73;;
10711;SDS011;5407;51.234;6.804;2023-10-31T03:35:41;6.87;;;5.30;;
10711;SDS011;5407;51.234;6.804;2023-10-31T03:38:08;8.73;;;5.70;;
10711;SDS011;5407;51.234;6.804;2023-10-31T03:40:35;6.47;;;5.70;;
10711;SDS011;5407;51.234;6.804;2023-10-31T03:43:02;9.13;;;5.80;;
10711;SDS011;5407;51.234;6.804;2023-10-31T03:45:30;6.30;;;5.40;;
10711;SDS011;5407;51.234;6.804;2023-10-31T03:48:00;6.33;;;5.60;;
10711;SDS011;5407;51.234;6.804;2023-10-31T03:50:25;7.63;;;5.77;;
10711;SDS011;5407;51.234;6.804;2023-10-31T03:52:53;8.27;;;5.20;;
10711;SDS011;5407;51.234;6.804;2023-10-31T03:55:20;8.07;;;4.93;;
10711;SDS011;5407;51.234;6.804;2023-10-31T03:57:47;6.70;;;5.03;;
10711;SDS011;5407;51.234;6.804;2023-10-31T04:00:14;6.70;;;5.13;;
10711;SDS011;5407;51.234;6.804;2023-10-31T04:02:41;6.27;;;4.83;;
10711;SDS011;5407;51.234;6.804;2023-10-31T04:05:10;7.20;;;4.93;;
10711;SDS011;5407;51.234;6.804;2023-10-31T04:07:37;7.30;;;4.90;;
10711;SDS011;5407;51.234;6.804;2023-10-31T04:10:04;6.70;;;4.47;;
10711;SDS011;5407;51.234;6.804;2023-10-31T04:12:32;5.50;;;4.20;;
10711;SDS011;5407;51.234;6.804;2023-10-31T04:14:59;5.00;;;4.37;;
10711;SDS011;5407;51.234;6.804;2023-10-31T04:17:26;4.80;;;4.00;;
10711;SDS011;5407;51.234;6.804;2023-10-31T04:19:53;7.10;;;4.07;;
10711;SDS011;5407;51.234;6.804;2023-10-31T04:22:22;5.50;;;3.97;;
10711;SDS011;5407;51.234;6.804;2023-10-31T04:24:48;5.17;;;4.13;;
10711;SDS011;5407;51.234;6.804;2023-10-31T04:27:15;5.50;;;3.80;;
10711;SDS011;5407;51.234;6.804;2023-10-31T04:29:43;7.57;;;4.20;;
10711;SDS011;5407;51.234;6.804;2023-10-31T04:32:10;6.23;;;3.73;;
10711;SDS011;5407;51.234;6.804;2023-10-31T04:34:37;6.40;;;3.80;;
10711;SDS011;5407;51.234;6.804;2023-10-31T04:37:05;5.37;;;4.33;;
10711;SDS011;5407;51.234;6.804;2023-10-31T04:39:33;4.60;;;4.10;;
10711;SDS011;5407;51.234;6.804;2023-10-31T04:42:00;4.97;;;4.00;;
10711;SDS011;5407;51.234;6.804;2023-10-31T04:44:27;4.00;;;3.60;;
10711;SDS011;5407;51.234;6.804;2023-10-31T04:46:54;8.13;;;3.93;;
10711;SDS011;5407;51.234;6.804;2023-10-31T04:49:21;5.07;;;3.90;;
10711;SDS011;5407;51.234;6.804;2023-10-31T04:51:48;5.50;;;4.00;;
10711;SDS011;5407;51.234;6.804;2023-10-31T04:54:15;5.03;;;4.33;;
10711;SDS011;5407;51.234;6.804;2023-10-31T04:56:43;4.57;;;3.80;;
10711;SDS011;5407;51.234;6.804;2023-10-31T04:59:10;4.80;;;4.10;;
10711;SDS011;5407;51.234;6.804;2023-10-31T05:01:37;5.90;;;4.53;;
10711;SDS011;5407;51.234;6.804;2023-10-31T05:04:04;6.50;;;5.43;;
10711;SDS011;5407;51.234;6.804;2023-10-31T05:06:31;7.27;;;5.70;;
10711;SDS011;5407;51.234;6.804;2023-10-31T05:08:58;6.50;;;5.80;;
10711;SDS011;5407;51.234;6.804;2023-10-31T05:11:25;8.07;;;6.60;;
10711;SDS011;5407;51.234;6.804;2023-10-31T05:13:53;7.63;;;6.47;;
10711;SDS011;5407;51.234;6.804;2023-10-31T05:16:20;10.77;;;7.30;;
10711;SDS011;5407;51.234;6.804;2023-10-31T05:18:47;9.53;;;6.87;;
10711;SDS011;5407;51.234;6.804;2023-10-31T05:21:18;8.30;;;6.50;;
10711;SDS011;5407;51.234;6.804;2023-10-31T05:23:45;7.33;;;6.47;;
10711;SDS011;5407;51.234;6.804;2023-10-31T05:26:12;7.00;;;6.40;;
10711;SDS011;5407;51.234;6.804;2023-10-31T05:28:39;9.20;;;6.97;;
10711;SDS011;5407;51.234;6.804;2023-10-31T05:31:07;9.03;;;8.10;;
10711;SDS011;5407;51.234;6.804;2023-10-31T05:33:34;8.60;;;7.70;;
10711;SDS011;5407;51.234;6.804;2023-10-31T05:36:01;11.23;;;7.97;;
10711;SDS011;5407;51.234;6.804;2023-10-31T05:38:29;7.90;;;7.00;;
10711;SDS011;5407;51.234;6.804;2023-10-31T05:40:56;7.13;;;5.90;;
10711;SDS011;5407;51.234;6.804;2023-10-31T05:43:23;7.27;;;5.77;;
10711;SDS011;5407;51.234;6.804;2023-10-31T05:45:50;7.60;;;5.60;;
10711;SDS011;5407;51.234;6.804;2023-10-31T05:48:18;9.87;;;5.70;;
10711;SDS011;5407;51.234;6.804;2023-10-31T05:50:45;8.63;;;6.17;;
10711;SDS011;5407;51.234;6.804;2023-10-31T05:53:12;7.13;;;5.67;;
10711;SDS011;5407;51.234;6.804;2023-10-31T05:55:39;7.27;;;5.33;;
10711;SDS011;5407;51.234;6.804;2023-10-31T05:58:06;6.23;;;5.30;;
10711;SDS011;5407;51.234;6.804;2023-10-31T06:00:33;6.80;;;5.20;;
10711;SDS011;5407;51.234;6.804;2023-10-31T06:03:00;7.70;;;5.60;;
10711;SDS011;5407;51.234;6.804;2023-10-31T06:05:29;6.70;;;5.33;;
10711;SDS011;5407;51.234;6.804;2023-10-31T06:07:56;5.53;;;5.03;;
10711;SDS011;5407;51.234;6.804;2023-10-31T06:10:22;5.60;;;5.00;;
10711;SDS011;5407;51.234;6.804;2023-10-31T06:12:49;4.90;;;4.40;;
10711;SDS011;5407;51.234;6.804;2023-10-31T06:15:16;7.33;;;4.53;;
10711;SDS011;5407;51.234;6.804;2023-10-31T06:17:43;4.63;;;4.23;;
10711;SDS011;5407;51.234;6.804;2023-10-31T06:20:11;4.83;;;4.33;;
10711;SDS011;5407;51.234;6.804;2023-10-31T06:22:39;4.50;;;4.10;;
10711;SDS011;5407;51.234;6.804;2023-10-31T06:25:06;4.50;;;4.10;;
10711;SDS011;5407;51.234;6.804;2023-10-31T06:27:33;6.00;;;4.20;;
10711;SDS011;5407;51.234;6.804;2023-10-31T06:30:00;6.03;;;4.43;;
10711;SDS011;5407;51.234;6.804;2023-10-31T06:32:27;6.87;;;6.17;;
10711;SDS011;5407;51.234;6.804;2023-10-31T06:34:54;7.20;;;6.50;;
10711;SDS011;5407;51.234;6.804;2023-10-31T06:37:21;8.40;;;5.40;;
10711;SDS011;5407;51.234;6.804;2023-10-31T06:39:50;7.63;;;5.87;;
10711;SDS011;5407;51.234;6.804;2023-10-31T06:42:17;7.47;;;5.67;;
10711;SDS011;5407;51.234;6.804;2023-10-31T06:44:44;7.23;;;6.07;;
10711;SDS011;5407;51.234;6.804;2023-10-31T06:47:11;7.23;;;6.00;;
10711;SDS011;5407;51.234;6.804;2023-10-31T06:49:37;8.07;;;6.70;;
10711;SDS011;5407;51.234;6.804;2023-10-31T06:52:05;6.60;;;5.93;;
10711;SDS011;5407;51.234;6.804;2023-10-31T06:54:32;7.50;;;6.77;;
10711;SDS011;5407;51.234;6.804;2023-10-31T06:57:01;7.97;;;6.63;;
10711;SDS011;5407;51.234;6.804;2023-10-31T06:59:28;7.80;;;6.97;;
10711;SDS011;5407;51.234;6.804;2023-10-31T07:01:55;7.63;;;6.83;;
10711;SDS011;5407;51.234;6.804;2023-10-31T07:04:22;9.47;;;7.17;;
10711;SDS011;5407;51.234;6.804;2023-10-31T07:06:49;8.07;;;7.27;;
10711;SDS011;5407;51.234;6.804;2023-10-31T07:09:22;9.67;;;7.00;;
10711;SDS011;5407;51.234;6.804;2023-10-31T07:11:49;8.13;;;6.90;;
10711;SDS011;5407;51.234;6.804;2023-10-31T07:14:17;8.27;;;7.10;;
10711;SDS011;5407;51.234;6.804;2023-10-31T07:16:44;8.57;;;7.20;;
10711;SDS011;5407;51.234;6.804;2023-10-31T07:19:11;11.27;;;10.27;;
10711;SDS011;5407;51.234;6.804;2023-10-31T07:21:38;13.73;;;12.40;;
10711;SDS011;5407;51.234;6.804;2023-10-31T07:24:05;13.97;;;12.53;;
10711;SDS011;5407;51.234;6.804;2023-10-31T07:26:34;13.23;;;11.93;;
10711;SDS011;5407;51.234;6.804;2023-10-31T07:29:01;11.57;;;10.40;;
10711;SDS011;5407;51.234;6.804;2023-10-31T07:31:29;10.50;;;9.43;;
10711;SDS011;5407;51.234;6.804;2023-10-31T07:33:56;8.60;;;7.80;;
10711;SDS011;5407;51.234;6.804;2023-10-31T07:36:23;8.63;;;7.47;;
10711;SDS011;5407;51.234;6.804;2023-10-31T07:38:50;8.27;;;7.37;;
10711;SDS011;5407;51.234;6.804;2023-10-31T07:41:17;8.37;;;7.47;;
10711;SDS011;5407;51.234;6.804;2023-10-31T07:43:44;9.13;;;6.90;;
10711;SDS011;5407;51.234;6.804;2023-10-31T07:46:11;8.33;;;7.53;;
10711;SDS011;5407;51.234;6.804;2023-10-31T07:48:39;9.23;;;8.17;;
10711;SDS011;5407;51.234;6.804;2023-10-31T07:51:06;10.50;;;8.20;;
10711;SDS011;5407;51.234;6.804;2023-10-31T07:53:33;12.53;;;8.47;;
10711;SDS011;5407;51.234;6.804;2023-10-31T07:56:00;10.67;;;8.50;;
10711;SDS011;5407;51.234;6.804;2023-10-31T07:58:27;12.17;;;8.00;;
10711;SDS011;5407;51.234;6.804;2023-10-31T08:00:53;11.60;;;8.50;;
10711;SDS011;5407;51.234;6.804;2023-10-31T08:03:20;8.77;;;7.60;;
10711;SDS011;5407;51.234;6.804;2023-10-31T08:05:49;9.63;;;7.93;;
10711;SDS011;5407;51.234;6.804;2023-10-31T08:08:16;10.03;;;6.83;;
10711;SDS011;5407;51.234;6.804;2023-10-31T08:10:43;7.53;;;6.80;;
10711;SDS011;5407;51.234;6.804;2023-10-31T08:13:09;11.07;;;6.70;;
10711;SDS011;5407;51.234;6.804;2023-10-31T08:15:36;8.37;;;6.50;;
10711;SDS011;5407;51.234;6.804;2023-10-31T08:18:06;6.90;;;6.17;;
10711;SDS011;5407;51.234;6.804;2023-10-31T08:20:33;7.00;;;6.30;;
10711;SDS011;5407;51.234;6.804;2023-10-31T08:23:01;7.27;;;6.40;;
10711;SDS011;5407;51.234;6.804;2023-10-31T08:25:28;7.60;;;6.77;;
10711;SDS011;5407;51.234;6.804;2023-10-31T08:27:55;11.23;;;6.60;;
10711;SDS011;5407;51.234;6.804;2023-10-31T08:30:22;8.40;;;6.80;;
10711;SDS011;5407;51.234;6.804;2023-10-31T08:32:49;7.33;;;6.57;;
10711;SDS011;5407;51.234;6.804;2023-10-31T08:35:16;8.07;;;6.87;;
10711;SDS011;5407;51.234;6.804;2023-10-31T08:37:43;10.87;;;6.90;;
10711;SDS011;5407;51.234;6.804;2023-10-31T08:40:12;7.80;;;6.13;;
10711;SDS011;5407;51.234;6.804;2023-10-31T08:42:38;8.90;;;7.30;;
10711;SDS011;5407;51.234;6.804;2023-10-31T08:45:07;10.80;;;6.80;;
10711;SDS011;5407;51.234;6.804;2023-10-31T08:47:34;10.97;;;6.97;;
10711;SDS011;5407;51.234;6.804;2023-10-31T08:50:01;7.70;;;5.93;;
10711;SDS011;5407;51.234;6.804;2023-10-31T08:52:28;7.10;;;6.40;;
10711;SDS011;5407;51.234;6.804;2023-10-31T08:54:55;7.50;;;6.80;;
10711;SDS011;5407;51.234;6.804;2023-10-31T08:57:23;7.17;;;6.33;;
10711;SDS011;5407;51.234;6.804;2023-10-31T08:59:50;7.57;;;6.53;;
10711;SDS011;5407;51.234;6.804;2023-10-31T09:02:17;9.60;;;7.10;;
10711;SDS011;5407;51.234;6.804;2023-10-31T09:04:44;10.53;;;8.03;;
10711;SDS011;5407;51.234;6.804;2023-10-31T09:07:11;9.60;;;7.40;;
10711;SDS011;5407;51.234;6.804;2023-10-31T09:09:38;10.47;;;7.30;;
10711;SDS011;5407;51.234;6.804;2023-10-31T09:12:05;8.63;;;6.40;;
10711;SDS011;5407;51.234;6.804;2023-10-31T09:14:33;9.30;;;6.80;;
10711;SDS011;5407;51.234;6.804;2023-10-31T09:17:02;7.60;;;6.33;;
10711;SDS011;5407;51.234;6.804;2023-10-31T09:19:29;6.73;;;6.07;;
10711;SDS011;5407;51.234;6.804;2023-10-31T09:21:56;7.07;;;6.47;;
10711;SDS011;5407;51.234;6.804;2023-10-31T09:24:23;7.67;;;6.30;;
10711;SDS011;5407;51.234;6.804;2023-10-31T09:26:50;7.27;;;6.40;;
10711;SDS011;5407;51.234;6.804;2023-10-31T09:29:19;7.60;;;6.90;;
10711;SDS011;5407;51.234;6.804;2023-10-31T09:31:47;10.07;;;6.47;;
10711;SDS011;5407;51.234;6.804;2023-10-31T09:34:15;7.70;;;5.80;;
10711;SDS011;5407;51.234;6.804;2023-10-31T09:36:43;5.97;;;5.13;;
10711;SDS011;5407;51.234;6.804;2023-10-31T09:39:10;9.97;;;5.67;;
10711;SDS011;5407;51.234;6.804;2023-10-31T09:41:36;7.77;;;5.10;;
10711;SDS011;5407;51.234;6.804;2023-10-31T09:44:04;8.00;;;5.27;;
10711;SDS011;5407;51.234;6.804;2023-10-31T09:46:31;7.23;;;5.17;;
10711;SDS011;5407;51.234;6.804;2023-10-31T09:49:00;5.97;;;4.97;;
10711;SDS011;5407;51.234;6.804;2023-10-31T09:51:27;11.57;;;4.83;;
10711;SDS011;5407;51.234;6.804;2023-10-31T09:53:54;6.07;;;4.33;;
10711;SDS011;5407;51.234;6.804;2023-10-31T09:56:23;4.20;;;3.73;;
10711;SDS011;5407;51.234;6.804;2023-10-31T09:58:52;6.13;;;4.37;;
10711;SDS011;5407;51.234;6.804;2023-10-31T10:01:18;7.13;;;4.03;;
10711;SDS011;5407;51.234;6.804;2023-10-31T10:03:45;3.97;;;3.30;;
10711;SDS011;5407;51.234;6.804;2023-10-31T10:06:14;5.80;;;3.70;;
10711;SDS011;5407;51.234;6.804;2023-10-31T10:08:41;6.67;;;3.67;;
10711;SDS011;5407;51.234;6.804;2023-10-31T10:11:07;7.90;;;3.80;;
10711;SDS011;5407;51.234;6.804;2023-10-31T10:13:35;4.67;;;3.50;;
10711;SDS011;5407;51.234;6.804;2023-10-31T10:16:02;6.50;;;3.67;;
10711;SDS011;5407;51.234;6.804;2023-10-31T10:18:30;4.67;;;3.23;;
10711;SDS011;5407;51.234;6.804;2023-10-31T10:20:58;7.33;;;3.43;;
10711;SDS011;5407;51.234;6.804;2023-10-31T10:23:28;8.37;;;3.53;;
10711;SDS011;5407;51.234;6.804;2023-10-31T10:25:56;6.57;;;4.00;;
10711;SDS011;5407;51.234;6.804;2023-10-31T10:28:24;5.53;;;3.63;;
10711;SDS011;5407;51.234;6.804;2023-10-31T10:30:52;6.43;;;3.20;;
10711;SDS011;5407;51.234;6.804;2023-10-31T10:33:20;5.20;;;2.77;;
10711;SDS011;5407;51.234;6.804;2023-10-31T10:35:47;6.23;;;2.60;;
10711;SDS011;5407;51.234;6.804;2023-10-31T10:38:15;15.30;;;3.07;;
10711;SDS011;5407;51.234;6.804;2023-10-31T10:40:45;5.80;;;2.80;;
10711;SDS011;5407;51.234;6.804;2023-10-31T10:43:19;6.03;;;4.90;;
10711;SDS011;5407;51.234;6.804;2023-10-31T10:45:49;5.60;;;3.57;;
10711;SDS011;5407;51.234;6.804;2023-10-31T10:48:21;12.87;;;6.77;;
10711;SDS011;5407;51.234;6.804;2023-10-31T10:50:50;11.77;;;9.23;;
10711;SDS011;5407;51.234;6.804;2023-10-31T10:53:23;5.88;;;4.30;;
10711;SDS011;5407;51.234;6.804;2023-10-31T10:55:55;4.97;;;2.25;;
10711;SDS011;5407;51.234;6.804;2023-10-31T10:58:27;6.15;;;2.40;;
10711;SDS011;5407;51.234;6.804;2023-10-31T11:01:01;4.80;;;2.20;;
10711;SDS011;5407;51.234;6.804;2023-10-31T11:03:29;7.60;;;2.20;;
10711;SDS011;5407;51.234;6.804;2023-10-31T11:05:58;6.03;;;1.80;;
10711;SDS011;5407;51.234;6.804;2023-10-31T11:08:26;4.57;;;2.10;;
10711;SDS011;5407;51.234;6.804;2023-10-31T11:10:56;3.10;;;1.93;;
10711;SDS011;5407;51.234;6.804;2023-10-31T11:13:23;3.17;;;2.20;;
10711;SDS011;5407;51.234;6.804;2023-10-31T11:15:51;6.30;;;2.67;;
10711;SDS011;5407;51.234;6.804;2023-10-31T11:18:22;3.40;;;2.03;;
10711;SDS011;5407;51.234;6.804;2023-10-31T11:20:51;5.43;;;2.23;;
10711;SDS011;5407;51.234;6.804;2023-10-31T11:23:18;3.90;;;1.93;;
10711;SDS011;5407;51.234;6.804;2023-10-31T11:25:46;3.07;;;1.87;;
10711;SDS011;5407;51.234;6.804;2023-10-31T11:28:19;6.67;;;2.60;;
10711;SDS011;5407;51.234;6.804;2023-10-31T11:30:48;4.07;;;2.00;;
10711;SDS011;5407;51.234;6.804;2023-10-31T11:33:16;11.13;;;6.50;;
10711;SDS011;5407;51.234;6.804;2023-10-31T11:35:49;9.23;;;6.93;;
10711;SDS011;5407;51.234;6.804;2023-10-31T11:38:17;14.90;;;5.47;;
10711;SDS011;5407;51.234;6.804;2023-10-31T11:40:58;8.03;;;2.67;;
10711;SDS011;5407;51.234;6.804;2023-10-31T11:43:36;6.23;;;4.03;;
10711;SDS011;5407;51.234;6.804;2023-10-31T11:46:18;3.83;;;2.43;;
10711;SDS011;5407;51.234;6.804;2023-10-31T11:48:47;5.73;;;2.30;;
10711;SDS011;5407;51.234;6.804;2023-10-31T11:51:15;4.77;;;2.40;;
10711;SDS011;5407;51.234;6.804;2023-10-31T11:53:42;7.00;;;2.10;;
10711;SDS011;5407;51.234;6.804;2023-10-31T11:56:18;4.10;;;1.93;;
10711;SDS011;5407;51.234;6.804;2023-10-31T11:58:55;3.43;;;2.00;;
10711;SDS011;5407;51.234;6.804;2023-10-31T12:01:23;3.33;;;1.80;;
10711;SDS011;5407;51.234;6.804;2023-10-31T12:03:49;8.93;;;2.10;;
10711;SDS011;5407;51.234;6.804;2023-10-31T12:06:17;5.20;;;2.30;;
10711;SDS011;5407;51.234;6.804;2023-10-31T12:08:45;4.00;;;1.90;;
10711;SDS011;5407;51.234;6.804;2023-10-31T12:11:14;3.73;;;1.90;;
10711;SDS011;5407;51.234;6.804;2023-10-31T12:13:51;5.27;;;1.77;;
10711;SDS011;5407;51.234;6.804;2023-10-31T12:16:24;5.33;;;2.17;;
10711;SDS011;5407;51.234;6.804;2023-10-31T12:18:55;5.60;;;1.67;;
10711;SDS011;5407;51.234;6.804;2023-10-31T12:21:38;5.67;;;2.50;;
10711;SDS011;5407;51.234;6.804;2023-10-31T12:24:09;5.03;;;2.00;;
10711;SDS011;5407;51.234;6.804;2023-10-31T12:26:37;4.00;;;1.90;;
10711;SDS011;5407;51.234;6.804;2023-10-31T12:29:08;5.03;;;2.07;;
10711;SDS011;5407;51.234;6.804;2023-10-31T12:31:41;3.60;;;1.80;;
10711;SDS011;5407;51.234;6.804;2023-10-31T12:34:09;3.80;;;2.00;;
10711;SDS011;5407;51.234;6.804;2023-10-31T12:36:36;5.90;;;1.80;;
10711;SDS011;5407;51.234;6.804;2023-10-31T12:39:04;5.83;;;2.20;;
10711;SDS011;5407;51.234;6.804;2023-10-31T12:41:34;8.70;;;2.53;;
10711;SDS011;5407;51.234;6.804;2023-10-31T12:44:01;3.03;;;1.97;;
10711;SDS011;5407;51.234;6.804;2023-10-31T12:46:30;3.07;;;1.80;;
10711;SDS011;5407;51.234;6.804;2023-10-31T12:49:01;6.23;;;2.20;;
10711;SDS011;5407;51.234;6.804;2023-10-31T12:51:28;5.67;;;1.83;;
10711;SDS011;5407;51.234;6.804;2023-10-31T12:53:55;6.40;;;2.10;;
10711;SDS011;5407;51.234;6.804;2023-10-31T12:56:35;5.17;;;2.13;;
10711;SDS011;5407;51.234;6.804;2023-10-31T12:59:04;5.03;;;2.03;;
10711;SDS011;5407;51.234;6.804;2023-10-31T13:01:33;6.23;;;2.07;;
10711;SDS011;5407;51.234;6.804;2023-10-31T13:04:02;5.07;;;2.00;;
10711;SDS011;5407;51.234;6.804;2023-10-31T13:06:29;5.97;;;2.50;;
10711;SDS011;5407;51.234;6.804;2023-10-31T13:08:56;3.57;;;1.60;;
10711;SDS011;5407;51.234;6.804;2023-10-31T13:11:24;6.03;;;1.87;;
10711;SDS011;5407;51.234;6.804;2023-10-31T13:13:55;7.73;;;1.90;;
10711;SDS011;5407;51.234;6.804;2023-10-31T13:16:23;4.87;;;1.80;;
10711;SDS011;5407;51.234;6.804;2023-10-31T13:18:52;5.23;;;1.70;;
10711;SDS011;5407;51.234;6.804;2023-10-31T13:21:20;4.13;;;1.50;;
10711;SDS011;5407;51.234;6.804;2023-10-31T13:23:47;4.57;;;1.80;;
10711;SDS011;5407;51.234;6.804;2023-10-31T13:26:14;4.10;;;1.80;;
10711;SDS011;5407;51.234;6.804;2023-10-31T13:28:41;5.10;;;1.50;;
10711;SDS011;5407;51.234;6.804;2023-10-31T13:31:08;5.30;;;1.83;;
10711;SDS011;5407;51.234;6.804;2023-10-31T13:33:36;7.10;;;1.80;;
10711;SDS011;5407;51.234;6.804;2023-10-31T13:36:04;6.87;;;1.63;;
10711;SDS011;5407;51.234;6.804;2023-10-31T13:38:33;3.73;;;1.60;;
10711;SDS011;5407;51.234;6.804;2023-10-31T13:41:01;5.87;;;1.67;;
10711;SDS011;5407;51.234;6.804;2023-10-31T13:43:28;5.67;;;1.63;;
10711;SDS011;5407;51.234;6.804;2023-10-31T13:45:55;2.50;;;1.57;;
10711;SDS011;5407;51.234;6.804;2023-10-31T13:48:22;3.27;;;1.53;;
10711;SDS011;5407;51.234;6.804;2023-10-31T13:50:48;3.90;;;1.53;;
10711;SDS011;5407;51.234;6.804;2023-10-31T13:53:16;4.10;;;1.50;;
10711;SDS011;5407;51.234;6.804;2023-10-31T13:55:44;3.77;;;1.40;;
10711;SDS011;5407;51.234;6.804;2023-10-31T13:58:11;4.90;;;1.43;;
10711;SDS011;5407;51.234;6.804;2023-10-31T14:00:38;3.50;;;1.50;;
10711;SDS011;5407;51.234;6.804;2023-10-31T14:03:05;3.87;;;1.70;;
10711;SDS011;5407;51.234;6.804;2023-10-31T14:05:32;7.40;;;1.67;;
10711;SDS011;5407;51.234;6.804;2023-10-31T14:07:59;5.73;;;1.27;;
10711;SDS011;5407;51.234;6.804;2023-10-31T14:10:26;6.33;;;1.80;;
10711;SDS011;5407;51.234;6.804;2023-10-31T14:12:54;4.03;;;1.70;;
10711;SDS011;5407;51.234;6.804;2023-10-31T14:15:21;5.00;;;1.90;;
10711;SDS011;5407;51.234;6.804;2023-10-31T14:17:48;4.33;;;1.80;;
10711;SDS011;5407;51.234;6.804;2023-10-31T14:20:15;4.17;;;1.80;;
10711;SDS011;5407;51.234;6.804;2023-10-31T14:22:46;5.20;;;1.70;;
10711;SDS011;5407;51.234;6.804;2023-10-31T14:25:14;5.00;;;1.60;;
10711;SDS011;5407;51.234;6.804;2023-10-31T14:27:41;6.20;;;1.73;;
10711;SDS011;5407;51.234;6.804;2023-10-31T14:30:10;5.33;;;1.93;;
10711;SDS011;5407;51.234;6.804;2023-10-31T14:32:38;3.57;;;1.80;;
10711;SDS011;5407;51.234;6.804;2023-10-31T14:35:06;3.83;;;1.63;;
10711;SDS011;5407;51.234;6.804;2023-10-31T14:37:33;6.83;;;2.20;;
10711;SDS011;5407;51.234;6.804;2023-10-31T14:40:01;7.67;;;1.87;;
10711;SDS011;5407;51.234;6.804;2023-10-31T14:42:29;5.30;;;2.10;;
10711;SDS011;5407;51.234;6.804;2023-10-31T14:44:56;8.37;;;2.20;;
10711;SDS011;5407;51.234;6.804;2023-10-31T14:47:26;5.27;;;1.80;;
10711;SDS011;5407;51.234;6.804;2023-10-31T14:49:53;9.93;;;1.90;;
10711;SDS011;5407;51.234;6.804;2023-10-31T14:52:20;6.13;;;1.87;;
10711;SDS011;5407;51.234;6.804;2023-10-31T14:54:47;6.53;;;2.10;;
10711;SDS011;5407;51.234;6.804;2023-10-31T14:57:14;6.80;;;2.27;;
10711;SDS011;5407;51.234;6.804;2023-10-31T14:59:41;8.70;;;1.97;;
10711;SDS011;5407;51.234;6.804;2023-10-31T15:02:08;8.07;;;2.17;;
10711;SDS011;5407;51.234;6.804;2023-10-31T15:04:36;6.47;;;2.03;;